Covington, Oklahoma
Current Conditions -  °F | °C
As of 11:15 PM on Saturday 20 Dec 2014 (Local Time) from KWDG Reporting Station
Clear Clear  
Wind Chill: 37°   Ceiling: Unl
Heat Index: 43°   Visibility: 10mi
Dew Point: 37°   Wind: 10mph
Humidity: 81%   Direction: 150°SSE
Pressure: 30.1"   Gusts: NA
Location:  36.31°N, 97.59°W
Report Text: KWDG 210515Z AUTO 15009KT 10SM CLR 06/03 A3010 RMK AO2
Loading
Personal Weather Stations






























Interactive Weather Map New forecast layout! Learn more

10-Day Weather Forecast

Advertisements
Track Severe Weather on mobile